»·PEaware :: N757MB KSNA-KSNA

N757MB :: KSNA-KSNA

FLIGHT INFORMATION

Flight Status: Arrived
Operator: Privately registered:
United States
More flights under this callsign
Pilot: LV Flight and Racing Simulations (5432)
Aircraft: CESSNA 501 CITATION 1SP
(C501)
More flights by this aircraft type
Origin: KSNA John Wayne-Orange Co
United States
Destination: KSNA John Wayne-Orange Co
United States
More flights between these airports :: More routes between these airports
Route: +
File this flight plan on PilotEdge
Remarks:
Altitude:
(Current/Filed)
0ft
Speed:
(Current/Filed)
0kts
Departed: 14-Feb-15 02:39 PM
Arrived: 14-Feb-15 02:55 PM
Distance/Time
Traveled:
2nm/0:15
Distance/Time
To Go:
Arrived

Flight Plot

Page will automatically refresh every two minutes.


Map Options




Map Legend


Flown Route
Filed Route
Departure Airport
Arrival Airport
Navaid (VOR, NDB)
Fix

Horizontal Profiles

Position Reports

Time Latitude Longitude Heading Altitude Ground
Speed
14-Feb-15 14:14 33.674336 -117.871971 65 60ft 4kts
14-Feb-15 14:15 33.675793 -117.870284 31 60ft 11kts
14-Feb-15 14:16 33.677734 -117.869079 27 60ft 12kts
14-Feb-15 14:17 33.680125 -117.867755 29 60ft 7kts
14-Feb-15 14:18 33.681695 -117.866743 32 60ft 5kts
14-Feb-15 14:19 33.681935 -117.866339 132 60ft 0kts
14-Feb-15 14:20 33.681935 -117.866339 132 60ft 0kts
14-Feb-15 14:21 33.681935 -117.866339 132 60ft 0kts
14-Feb-15 14:22 33.681905 -117.866249 101 60ft 2kts
14-Feb-15 14:23 33.681415 -117.865200 212 60ft 0kts
14-Feb-15 14:24 33.681415 -117.865200 212 60ft 0kts
14-Feb-15 14:25 33.681415 -117.865200 212 60ft 0kts
14-Feb-15 14:26 33.681415 -117.865200 212 60ft 0kts
14-Feb-15 14:27 33.681415 -117.865200 212 60ft 0kts
14-Feb-15 14:28 33.680804 -117.865925 309 60ft 7kts
14-Feb-15 14:29 33.681525 -117.866522 355 60ft 0kts
14-Feb-15 14:30 33.681525 -117.866522 355 60ft 0kts
14-Feb-15 14:31 33.681892 -117.866403 43 60ft 4kts
14-Feb-15 14:32 33.681934 -117.865972 106 60ft 3kts
14-Feb-15 14:33 33.669122 -117.872940 207 533ft 116kts
14-Feb-15 14:34 33.667336 -117.906710 338 1435ft 153kts
14-Feb-15 14:35 33.705291 -117.892396 25 1461ft 145kts
14-Feb-15 14:36 33.706951 -117.856238 136 750ft 130kts
14-Feb-15 14:37 33.677025 -117.867969 209 62ft 98kts
14-Feb-15 14:38 33.653019 -117.892741 281 1191ft 138kts
14-Feb-15 14:39 33.681036 -117.917635 26 1713ft 147kts
14-Feb-15 14:40 33.713370 -117.891219 94 1138ft 152kts
14-Feb-15 14:41 33.690277 -117.860058 202 432ft 134kts
14-Feb-15 14:42 33.659284 -117.879182 207 912ft 135kts
14-Feb-15 14:43 33.677736 -117.896232 18 1717ft 155kts
14-Feb-15 14:44 33.716386 -117.876962 30 1423ft 144kts
14-Feb-15 14:45 33.750373 -117.853045 89 1499ft 157kts
14-Feb-15 14:46 33.718876 -117.842734 198 1055ft 140kts
14-Feb-15 14:47 33.687159 -117.861595 206 312ft 124kts
14-Feb-15 14:48 33.664742 -117.876177 214 60ft 48kts
14-Feb-15 14:49 33.673565 -117.872253 89 60ft 0kts
14-Feb-15 14:50 33.674109 -117.871514 22 60ft 23kts
14-Feb-15 14:51 33.677065 -117.869492 25 60ft 17kts
14-Feb-15 14:52 33.680331 -117.867615 26 60ft 8kts
14-Feb-15 14:53 33.681989 -117.866247 88 60ft 3kts
14-Feb-15 14:54 33.681986 -117.866172 98 60ft 0kts
14-Feb-15 14:55 33.681986 -117.866172 98 60ft 0kts
14-Feb-15 14:56 33.681983 -117.866153 99 60ft 1kts
14-Feb-15 14:57 33.681353 -117.865236 216 60ft 7kts
14-Feb-15 14:58 33.658254 -117.890862 279 1571ft 167kts
14-Feb-15 14:59 33.690100 -117.898375 31 1402ft 135kts
14-Feb-15 15:00 33.701713 -117.863907 123 849ft 127kts
14-Feb-15 15:01 33.671531 -117.871503 208 95ft 133kts
14-Feb-15 15:02 33.666342 -117.905741 341 1496ft 157kts
14-Feb-15 15:03 33.705257 -117.888025 23 1410ft 141kts

Navigation Log

Ident Type
Flight plan parsing failed, navigation log unavailable